sensor_id;sensor_type;location;lat;lon;timestamp;P1;durP1;ratioP1;P2;durP2;ratioP2
67156;SDS011;54086;50.126;8.710;2023-01-15T00:01:40;5.20;;;2.30;;
67156;SDS011;54086;50.126;8.710;2023-01-15T00:04:06;5.30;;;2.50;;
67156;SDS011;54086;50.126;8.710;2023-01-15T00:06:36;5.78;;;2.50;;
67156;SDS011;54086;50.126;8.710;2023-01-15T00:09:03;6.32;;;2.47;;
67156;SDS011;54086;50.126;8.710;2023-01-15T00:11:29;6.77;;;2.60;;
67156;SDS011;54086;50.126;8.710;2023-01-15T00:13:55;6.20;;;2.40;;
67156;SDS011;54086;50.126;8.710;2023-01-15T00:16:21;5.77;;;2.57;;
67156;SDS011;54086;50.126;8.710;2023-01-15T00:18:50;5.97;;;2.90;;
67156;SDS011;54086;50.126;8.710;2023-01-15T00:21:17;7.15;;;2.70;;
67156;SDS011;54086;50.126;8.710;2023-01-15T00:23:43;5.57;;;2.55;;
67156;SDS011;54086;50.126;8.710;2023-01-15T00:26:29;7.22;;;2.75;;
67156;SDS011;54086;50.126;8.710;2023-01-15T00:29:14;6.27;;;2.53;;
67156;SDS011;54086;50.126;8.710;2023-01-15T00:31:39;7.45;;;3.20;;
67156;SDS011;54086;50.126;8.710;2023-01-15T00:34:05;7.20;;;3.58;;
67156;SDS011;54086;50.126;8.710;2023-01-15T00:36:31;5.70;;;2.60;;
67156;SDS011;54086;50.126;8.710;2023-01-15T00:38:57;7.10;;;3.22;;
67156;SDS011;54086;50.126;8.710;2023-01-15T00:41:23;10.47;;;3.30;;
67156;SDS011;54086;50.126;8.710;2023-01-15T00:43:48;6.27;;;3.10;;
67156;SDS011;54086;50.126;8.710;2023-01-15T00:46:13;7.78;;;3.40;;
67156;SDS011;54086;50.126;8.710;2023-01-15T00:48:39;6.50;;;3.00;;
67156;SDS011;54086;50.126;8.710;2023-01-15T00:51:04;7.20;;;3.07;;
67156;SDS011;54086;50.126;8.710;2023-01-15T00:53:30;8.50;;;3.67;;
67156;SDS011;54086;50.126;8.710;2023-01-15T00:55:56;7.43;;;3.57;;
67156;SDS011;54086;50.126;8.710;2023-01-15T00:58:21;7.23;;;3.60;;
67156;SDS011;54086;50.126;8.710;2023-01-15T01:00:51;6.35;;;3.00;;
67156;SDS011;54086;50.126;8.710;2023-01-15T01:03:21;6.80;;;3.07;;
67156;SDS011;54086;50.126;8.710;2023-01-15T01:05:47;7.78;;;3.58;;
67156;SDS011;54086;50.126;8.710;2023-01-15T01:08:13;7.15;;;3.20;;
67156;SDS011;54086;50.126;8.710;2023-01-15T01:10:39;7.05;;;3.10;;
67156;SDS011;54086;50.126;8.710;2023-01-15T01:13:05;5.73;;;2.40;;
67156;SDS011;54086;50.126;8.710;2023-01-15T01:15:34;6.10;;;2.58;;
67156;SDS011;54086;50.126;8.710;2023-01-15T01:18:00;5.87;;;2.47;;
67156;SDS011;54086;50.126;8.710;2023-01-15T01:20:26;7.07;;;2.35;;
67156;SDS011;54086;50.126;8.710;2023-01-15T01:22:52;6.22;;;2.80;;
67156;SDS011;54086;50.126;8.710;2023-01-15T01:25:17;4.63;;;1.73;;
67156;SDS011;54086;50.126;8.710;2023-01-15T01:27:43;6.43;;;2.03;;
67156;SDS011;54086;50.126;8.710;2023-01-15T01:30:09;3.95;;;1.52;;
67156;SDS011;54086;50.126;8.710;2023-01-15T01:32:35;5.82;;;1.73;;
67156;SDS011;54086;50.126;8.710;2023-01-15T01:35:01;5.50;;;1.50;;
67156;SDS011;54086;50.126;8.710;2023-01-15T01:37:26;3.67;;;1.27;;
67156;SDS011;54086;50.126;8.710;2023-01-15T01:39:51;3.57;;;1.27;;
67156;SDS011;54086;50.126;8.710;2023-01-15T01:42:17;3.63;;;1.40;;
67156;SDS011;54086;50.126;8.710;2023-01-15T01:47:22;2.90;;;1.10;;
67156;SDS011;54086;50.126;8.710;2023-01-15T01:49:51;3.07;;;1.37;;
67156;SDS011;54086;50.126;8.710;2023-01-15T01:52:25;3.33;;;1.27;;
67156;SDS011;54086;50.126;8.710;2023-01-15T01:54:53;4.10;;;1.30;;
67156;SDS011;54086;50.126;8.710;2023-01-15T01:57:20;2.97;;;1.10;;
67156;SDS011;54086;50.126;8.710;2023-01-15T01:59:47;2.97;;;1.00;;
67156;SDS011;54086;50.126;8.710;2023-01-15T02:02:13;3.13;;;1.17;;
67156;SDS011;54086;50.126;8.710;2023-01-15T02:04:41;3.88;;;1.23;;
67156;SDS011;54086;50.126;8.710;2023-01-15T02:07:07;5.10;;;1.40;;
67156;SDS011;54086;50.126;8.710;2023-01-15T02:09:32;2.70;;;0.83;;
67156;SDS011;54086;50.126;8.710;2023-01-15T02:12:04;2.70;;;0.90;;
67156;SDS011;54086;50.126;8.710;2023-01-15T02:14:43;4.28;;;1.02;;
67156;SDS011;54086;50.126;8.710;2023-01-15T02:18:05;3.47;;;0.90;;
67156;SDS011;54086;50.126;8.710;2023-01-15T02:22:53;1.73;;;0.90;;
67156;SDS011;54086;50.126;8.710;2023-01-15T02:25:33;2.65;;;0.80;;
67156;SDS011;54086;50.126;8.710;2023-01-15T02:28:06;3.22;;;1.10;;
67156;SDS011;54086;50.126;8.710;2023-01-15T02:30:39;3.15;;;1.17;;
67156;SDS011;54086;50.126;8.710;2023-01-15T02:33:09;3.05;;;1.00;;
67156;SDS011;54086;50.126;8.710;2023-01-15T02:35:43;2.20;;;0.73;;
67156;SDS011;54086;50.126;8.710;2023-01-15T02:38:14;1.65;;;0.70;;
67156;SDS011;54086;50.126;8.710;2023-01-15T02:40:43;1.23;;;0.70;;
67156;SDS011;54086;50.126;8.710;2023-01-15T02:43:11;1.30;;;0.70;;
67156;SDS011;54086;50.126;8.710;2023-01-15T02:45:38;1.60;;;0.70;;
67156;SDS011;54086;50.126;8.710;2023-01-15T02:48:13;1.40;;;0.60;;
67156;SDS011;54086;50.126;8.710;2023-01-15T02:50:44;1.75;;;0.65;;
67156;SDS011;54086;50.126;8.710;2023-01-15T02:53:13;2.05;;;0.90;;
67156;SDS011;54086;50.126;8.710;2023-01-15T02:55:43;5.28;;;1.38;;
67156;SDS011;54086;50.126;8.710;2023-01-15T02:58:13;1.92;;;0.70;;
67156;SDS011;54086;50.126;8.710;2023-01-15T03:00:42;2.10;;;0.70;;
67156;SDS011;54086;50.126;8.710;2023-01-15T03:03:16;1.77;;;0.80;;
67156;SDS011;54086;50.126;8.710;2023-01-15T03:05:55;2.42;;;0.80;;
67156;SDS011;54086;50.126;8.710;2023-01-15T03:08:26;1.08;;;0.60;;
67156;SDS011;54086;50.126;8.710;2023-01-15T03:13:47;1.65;;;0.77;;
67156;SDS011;54086;50.126;8.710;2023-01-15T03:19:11;2.25;;;0.80;;
67156;SDS011;54086;50.126;8.710;2023-01-15T03:24:14;1.50;;;0.60;;
67156;SDS011;54086;50.126;8.710;2023-01-15T03:26:45;1.15;;;0.60;;
67156;SDS011;54086;50.126;8.710;2023-01-15T03:29:10;1.73;;;0.57;;
67156;SDS011;54086;50.126;8.710;2023-01-15T03:31:38;2.05;;;0.70;;
67156;SDS011;54086;50.126;8.710;2023-01-15T03:34:04;1.67;;;0.60;;
67156;SDS011;54086;50.126;8.710;2023-01-15T03:36:31;1.38;;;0.70;;
67156;SDS011;54086;50.126;8.710;2023-01-15T03:38:57;2.10;;;0.77;;
67156;SDS011;54086;50.126;8.710;2023-01-15T03:41:33;1.38;;;0.60;;
67156;SDS011;54086;50.126;8.710;2023-01-15T03:46:46;1.57;;;0.60;;
67156;SDS011;54086;50.126;8.710;2023-01-15T03:54:49;2.15;;;0.73;;
67156;SDS011;54086;50.126;8.710;2023-01-15T03:57:33;1.92;;;0.80;;
67156;SDS011;54086;50.126;8.710;2023-01-15T04:02:43;1.35;;;0.70;;
67156;SDS011;54086;50.126;8.710;2023-01-15T04:05:10;1.43;;;0.67;;
67156;SDS011;54086;50.126;8.710;2023-01-15T04:07:36;1.80;;;0.80;;
67156;SDS011;54086;50.126;8.710;2023-01-15T04:10:02;1.43;;;0.70;;
67156;SDS011;54086;50.126;8.710;2023-01-15T04:12:30;1.55;;;0.70;;
67156;SDS011;54086;50.126;8.710;2023-01-15T04:14:57;2.13;;;0.60;;
67156;SDS011;54086;50.126;8.710;2023-01-15T04:17:23;1.20;;;0.60;;
67156;SDS011;54086;50.126;8.710;2023-01-15T04:19:48;2.00;;;0.53;;
67156;SDS011;54086;50.126;8.710;2023-01-15T04:22:15;1.38;;;0.60;;
67156;SDS011;54086;50.126;8.710;2023-01-15T04:24:40;0.63;;;0.40;;
67156;SDS011;54086;50.126;8.710;2023-01-15T04:27:06;1.50;;;0.50;;
67156;SDS011;54086;50.126;8.710;2023-01-15T04:29:31;0.65;;;0.47;;
67156;SDS011;54086;50.126;8.710;2023-01-15T04:31:56;1.10;;;0.57;;
67156;SDS011;54086;50.126;8.710;2023-01-15T04:34:25;1.20;;;0.60;;
67156;SDS011;54086;50.126;8.710;2023-01-15T04:36:51;1.95;;;0.80;;
67156;SDS011;54086;50.126;8.710;2023-01-15T04:39:17;2.80;;;0.80;;
67156;SDS011;54086;50.126;8.710;2023-01-15T04:41:43;3.28;;;1.23;;
67156;SDS011;54086;50.126;8.710;2023-01-15T04:44:27;1.57;;;0.77;;
67156;SDS011;54086;50.126;8.710;2023-01-15T04:46:53;1.52;;;0.68;;
67156;SDS011;54086;50.126;8.710;2023-01-15T04:49:19;1.00;;;0.43;;
67156;SDS011;54086;50.126;8.710;2023-01-15T04:51:45;1.48;;;0.50;;
67156;SDS011;54086;50.126;8.710;2023-01-15T04:54:11;1.47;;;0.70;;
67156;SDS011;54086;50.126;8.710;2023-01-15T04:56:39;1.02;;;0.50;;
67156;SDS011;54086;50.126;8.710;2023-01-15T04:59:06;1.08;;;0.47;;
67156;SDS011;54086;50.126;8.710;2023-01-15T05:01:32;1.57;;;0.67;;
67156;SDS011;54086;50.126;8.710;2023-01-15T05:03:57;1.95;;;0.60;;
67156;SDS011;54086;50.126;8.710;2023-01-15T05:06:26;2.10;;;0.80;;
67156;SDS011;54086;50.126;8.710;2023-01-15T05:08:52;2.00;;;0.60;;
67156;SDS011;54086;50.126;8.710;2023-01-15T05:11:17;1.67;;;0.70;;
67156;SDS011;54086;50.126;8.710;2023-01-15T05:13:43;1.03;;;0.60;;
67156;SDS011;54086;50.126;8.710;2023-01-15T05:16:12;1.52;;;0.50;;
67156;SDS011;54086;50.126;8.710;2023-01-15T05:18:40;1.20;;;0.60;;
67156;SDS011;54086;50.126;8.710;2023-01-15T05:21:12;0.80;;;0.50;;
67156;SDS011;54086;50.126;8.710;2023-01-15T05:23:42;2.80;;;1.08;;
67156;SDS011;54086;50.126;8.710;2023-01-15T05:26:08;2.77;;;0.80;;
67156;SDS011;54086;50.126;8.710;2023-01-15T05:28:33;2.05;;;0.80;;
67156;SDS011;54086;50.126;8.710;2023-01-15T05:31:00;3.00;;;0.73;;
67156;SDS011;54086;50.126;8.710;2023-01-15T05:33:31;1.70;;;0.80;;
67156;SDS011;54086;50.126;8.710;2023-01-15T05:35:59;2.50;;;0.80;;
67156;SDS011;54086;50.126;8.710;2023-01-15T05:38:26;1.05;;;0.60;;
67156;SDS011;54086;50.126;8.710;2023-01-15T05:40:51;1.77;;;0.50;;
67156;SDS011;54086;50.126;8.710;2023-01-15T05:43:17;1.20;;;0.50;;
67156;SDS011;54086;50.126;8.710;2023-01-15T05:45:42;1.43;;;0.70;;
67156;SDS011;54086;50.126;8.710;2023-01-15T05:48:07;1.07;;;0.60;;
67156;SDS011;54086;50.126;8.710;2023-01-15T05:50:33;1.33;;;0.60;;
67156;SDS011;54086;50.126;8.710;2023-01-15T05:52:58;2.38;;;0.60;;
67156;SDS011;54086;50.126;8.710;2023-01-15T05:55:23;2.70;;;0.70;;
67156;SDS011;54086;50.126;8.710;2023-01-15T05:57:49;1.47;;;0.50;;
67156;SDS011;54086;50.126;8.710;2023-01-15T06:00:14;1.60;;;0.70;;
67156;SDS011;54086;50.126;8.710;2023-01-15T06:02:40;1.77;;;0.70;;
67156;SDS011;54086;50.126;8.710;2023-01-15T06:05:05;3.23;;;0.70;;
67156;SDS011;54086;50.126;8.710;2023-01-15T06:07:31;1.23;;;0.60;;
67156;SDS011;54086;50.126;8.710;2023-01-15T06:09:56;0.80;;;0.50;;
67156;SDS011;54086;50.126;8.710;2023-01-15T06:12:21;1.43;;;0.53;;
67156;SDS011;54086;50.126;8.710;2023-01-15T06:14:47;2.40;;;0.67;;
67156;SDS011;54086;50.126;8.710;2023-01-15T06:17:12;1.38;;;0.60;;
67156;SDS011;54086;50.126;8.710;2023-01-15T06:19:39;2.43;;;0.60;;
67156;SDS011;54086;50.126;8.710;2023-01-15T06:22:04;1.65;;;0.63;;
67156;SDS011;54086;50.126;8.710;2023-01-15T06:24:29;3.63;;;0.70;;
67156;SDS011;54086;50.126;8.710;2023-01-15T06:26:55;1.40;;;0.57;;
67156;SDS011;54086;50.126;8.710;2023-01-15T06:29:20;0.93;;;0.60;;
67156;SDS011;54086;50.126;8.710;2023-01-15T06:31:46;1.50;;;0.50;;
67156;SDS011;54086;50.126;8.710;2023-01-15T06:34:12;0.80;;;0.50;;
67156;SDS011;54086;50.126;8.710;2023-01-15T06:36:37;1.45;;;0.52;;
67156;SDS011;54086;50.126;8.710;2023-01-15T06:39:02;2.43;;;0.73;;
67156;SDS011;54086;50.126;8.710;2023-01-15T06:41:28;1.83;;;0.80;;
67156;SDS011;54086;50.126;8.710;2023-01-15T06:44:13;1.10;;;0.70;;
67156;SDS011;54086;50.126;8.710;2023-01-15T06:47:07;1.75;;;0.70;;
67156;SDS011;54086;50.126;8.710;2023-01-15T06:49:45;2.40;;;0.60;;
67156;SDS011;54086;50.126;8.710;2023-01-15T06:52:11;2.92;;;0.85;;
67156;SDS011;54086;50.126;8.710;2023-01-15T06:54:36;3.00;;;1.20;;
67156;SDS011;54086;50.126;8.710;2023-01-15T06:57:02;1.50;;;0.70;;
67156;SDS011;54086;50.126;8.710;2023-01-15T06:59:27;1.03;;;0.50;;
67156;SDS011;54086;50.126;8.710;2023-01-15T07:01:53;4.30;;;1.03;;
67156;SDS011;54086;50.126;8.710;2023-01-15T07:04:19;2.17;;;0.63;;
67156;SDS011;54086;50.126;8.710;2023-01-15T07:06:44;1.67;;;0.60;;
67156;SDS011;54086;50.126;8.710;2023-01-15T07:09:10;1.25;;;0.70;;
67156;SDS011;54086;50.126;8.710;2023-01-15T07:11:36;1.97;;;0.70;;
67156;SDS011;54086;50.126;8.710;2023-01-15T07:14:14;4.20;;;1.17;;
67156;SDS011;54086;50.126;8.710;2023-01-15T07:16:40;2.78;;;0.85;;
67156;SDS011;54086;50.126;8.710;2023-01-15T07:19:05;3.83;;;0.60;;
67156;SDS011;54086;50.126;8.710;2023-01-15T07:21:31;3.20;;;0.80;;
67156;SDS011;54086;50.126;8.710;2023-01-15T07:23:59;2.20;;;0.70;;
67156;SDS011;54086;50.126;8.710;2023-01-15T07:26:26;2.73;;;0.70;;
67156;SDS011;54086;50.126;8.710;2023-01-15T07:28:52;1.90;;;0.60;;
67156;SDS011;54086;50.126;8.710;2023-01-15T07:31:17;1.75;;;0.60;;
67156;SDS011;54086;50.126;8.710;2023-01-15T07:33:43;1.83;;;0.70;;
67156;SDS011;54086;50.126;8.710;2023-01-15T07:36:08;3.00;;;0.67;;
67156;SDS011;54086;50.126;8.710;2023-01-15T07:38:34;2.45;;;0.80;;
67156;SDS011;54086;50.126;8.710;2023-01-15T07:40:59;3.13;;;0.83;;
67156;SDS011;54086;50.126;8.710;2023-01-15T07:43:43;1.55;;;0.60;;
67156;SDS011;54086;50.126;8.710;2023-01-15T07:46:27;2.63;;;0.77;;
67156;SDS011;54086;50.126;8.710;2023-01-15T07:49:12;2.17;;;0.63;;
67156;SDS011;54086;50.126;8.710;2023-01-15T07:51:56;2.72;;;0.88;;
67156;SDS011;54086;50.126;8.710;2023-01-15T07:54:22;3.97;;;1.00;;
67156;SDS011;54086;50.126;8.710;2023-01-15T07:56:48;1.73;;;0.80;;
67156;SDS011;54086;50.126;8.710;2023-01-15T07:59:15;1.88;;;0.70;;
67156;SDS011;54086;50.126;8.710;2023-01-15T08:01:40;2.60;;;0.83;;
67156;SDS011;54086;50.126;8.710;2023-01-15T08:04:06;3.17;;;0.80;;
67156;SDS011;54086;50.126;8.710;2023-01-15T08:06:31;2.88;;;0.60;;
67156;SDS011;54086;50.126;8.710;2023-01-15T08:08:56;2.87;;;0.60;;
67156;SDS011;54086;50.126;8.710;2023-01-15T08:11:22;1.77;;;0.63;;
67156;SDS011;54086;50.126;8.710;2023-01-15T08:14:07;1.83;;;0.60;;
67156;SDS011;54086;50.126;8.710;2023-01-15T08:16:52;2.47;;;0.75;;
67156;SDS011;54086;50.126;8.710;2023-01-15T08:19:17;4.27;;;0.80;;
67156;SDS011;54086;50.126;8.710;2023-01-15T08:21:42;3.43;;;1.00;;
67156;SDS011;54086;50.126;8.710;2023-01-15T08:24:08;4.10;;;0.97;;
67156;SDS011;54086;50.126;8.710;2023-01-15T08:26:33;2.40;;;0.80;;
67156;SDS011;54086;50.126;8.710;2023-01-15T08:28:58;2.40;;;1.20;;
67156;SDS011;54086;50.126;8.710;2023-01-15T08:31:24;1.58;;;0.80;;
67156;SDS011;54086;50.126;8.710;2023-01-15T08:33:49;1.30;;;0.50;;
67156;SDS011;54086;50.126;8.710;2023-01-15T08:36:15;3.57;;;0.90;;
67156;SDS011;54086;50.126;8.710;2023-01-15T08:38:41;3.20;;;0.73;;
67156;SDS011;54086;50.126;8.710;2023-01-15T08:41:07;2.80;;;1.10;;
67156;SDS011;54086;50.126;8.710;2023-01-15T08:43:33;4.88;;;1.20;;
67156;SDS011;54086;50.126;8.710;2023-01-15T08:45:59;1.93;;;0.70;;
67156;SDS011;54086;50.126;8.710;2023-01-15T08:48:27;4.10;;;1.58;;
67156;SDS011;54086;50.126;8.710;2023-01-15T08:50:54;2.58;;;0.70;;
67156;SDS011;54086;50.126;8.710;2023-01-15T08:53:19;1.37;;;0.60;;
67156;SDS011;54086;50.126;8.710;2023-01-15T08:55:45;1.53;;;0.60;;
67156;SDS011;54086;50.126;8.710;2023-01-15T08:58:11;1.88;;;0.70;;
67156;SDS011;54086;50.126;8.710;2023-01-15T09:00:36;1.38;;;0.70;;
67156;SDS011;54086;50.126;8.710;2023-01-15T09:03:02;1.57;;;0.63;;
67156;SDS011;54086;50.126;8.710;2023-01-15T09:05:27;1.20;;;0.67;;
67156;SDS011;54086;50.126;8.710;2023-01-15T09:07:56;2.20;;;0.70;;
67156;SDS011;54086;50.126;8.710;2023-01-15T09:10:22;2.50;;;0.80;;
67156;SDS011;54086;50.126;8.710;2023-01-15T09:12:47;1.92;;;0.70;;
67156;SDS011;54086;50.126;8.710;2023-01-15T09:15:13;2.17;;;0.70;;
67156;SDS011;54086;50.126;8.710;2023-01-15T09:17:38;1.70;;;0.80;;
67156;SDS011;54086;50.126;8.710;2023-01-15T09:20:08;1.50;;;0.70;;
67156;SDS011;54086;50.126;8.710;2023-01-15T09:22:36;1.60;;;0.80;;
67156;SDS011;54086;50.126;8.710;2023-01-15T09:25:02;2.07;;;0.80;;
67156;SDS011;54086;50.126;8.710;2023-01-15T09:27:28;2.22;;;0.90;;
67156;SDS011;54086;50.126;8.710;2023-01-15T09:29:54;4.07;;;1.20;;
67156;SDS011;54086;50.126;8.710;2023-01-15T09:32:19;3.33;;;0.90;;
67156;SDS011;54086;50.126;8.710;2023-01-15T09:34:45;2.67;;;0.83;;
67156;SDS011;54086;50.126;8.710;2023-01-15T09:37:11;1.43;;;0.60;;
67156;SDS011;54086;50.126;8.710;2023-01-15T09:39:36;3.17;;;0.80;;
67156;SDS011;54086;50.126;8.710;2023-01-15T09:47:30;2.75;;;0.82;;
67156;SDS011;54086;50.126;8.710;2023-01-15T09:50:33;2.10;;;0.90;;
67156;SDS011;54086;50.126;8.710;2023-01-15T09:55:46;1.83;;;0.80;;
67156;SDS011;54086;50.126;8.710;2023-01-15T09:58:13;1.90;;;0.60;;
67156;SDS011;54086;50.126;8.710;2023-01-15T10:00:43;1.58;;;0.70;;
67156;SDS011;54086;50.126;8.710;2023-01-15T10:08:49;3.15;;;0.93;;
67156;SDS011;54086;50.126;8.710;2023-01-15T10:11:27;3.00;;;0.90;;
67156;SDS011;54086;50.126;8.710;2023-01-15T10:14:21;1.33;;;0.65;;
67156;SDS011;54086;50.126;8.710;2023-01-15T10:17:04;2.97;;;1.10;;
67156;SDS011;54086;50.126;8.710;2023-01-15T10:19:38;2.28;;;0.73;;
67156;SDS011;54086;50.126;8.710;2023-01-15T10:22:06;2.25;;;0.80;;
67156;SDS011;54086;50.126;8.710;2023-01-15T10:24:43;1.73;;;0.60;;
67156;SDS011;54086;50.126;8.710;2023-01-15T10:27:22;4.10;;;1.00;;
67156;SDS011;54086;50.126;8.710;2023-01-15T10:29:54;2.78;;;0.80;;
67156;SDS011;54086;50.126;8.710;2023-01-15T10:37:50;2.70;;;1.00;;
67156;SDS011;54086;50.126;8.710;2023-01-15T10:46:13;2.50;;;1.00;;
67156;SDS011;54086;50.126;8.710;2023-01-15T10:51:25;1.97;;;0.67;;
67156;SDS011;54086;50.126;8.710;2023-01-15T11:01:21;3.80;;;1.02;;
67156;SDS011;54086;50.126;8.710;2023-01-15T11:03:49;3.33;;;0.90;;
67156;SDS011;54086;50.126;8.710;2023-01-15T11:06:17;3.30;;;0.97;;
67156;SDS011;54086;50.126;8.710;2023-01-15T11:08:45;1.90;;;0.80;;
67156;SDS011;54086;50.126;8.710;2023-01-15T11:11:16;4.05;;;1.17;;
67156;SDS011;54086;50.126;8.710;2023-01-15T11:14:07;2.38;;;0.77;;
67156;SDS011;54086;50.126;8.710;2023-01-15T11:16:51;2.60;;;0.90;;
67156;SDS011;54086;50.126;8.710;2023-01-15T11:19:35;2.85;;;1.05;;
67156;SDS011;54086;50.126;8.710;2023-01-15T11:22:07;2.08;;;0.70;;
67156;SDS011;54086;50.126;8.710;2023-01-15T11:27:29;3.65;;;1.10;;
67156;SDS011;54086;50.126;8.710;2023-01-15T11:29:58;3.77;;;0.80;;
67156;SDS011;54086;50.126;8.710;2023-01-15T11:32:35;4.78;;;1.00;;
67156;SDS011;54086;50.126;8.710;2023-01-15T11:35:09;2.88;;;0.70;;
67156;SDS011;54086;50.126;8.710;2023-01-15T11:37:40;3.05;;;0.98;;
67156;SDS011;54086;50.126;8.710;2023-01-15T11:40:14;3.60;;;1.00;;
67156;SDS011;54086;50.126;8.710;2023-01-15T11:42:44;3.95;;;0.93;;
67156;SDS011;54086;50.126;8.710;2023-01-15T11:45:29;2.85;;;0.90;;
67156;SDS011;54086;50.126;8.710;2023-01-15T11:48:15;4.32;;;1.30;;
67156;SDS011;54086;50.126;8.710;2023-01-15T11:53:40;2.90;;;0.80;;
67156;SDS011;54086;50.126;8.710;2023-01-15T11:56:12;3.70;;;0.80;;
67156;SDS011;54086;50.126;8.710;2023-01-15T11:58:43;5.10;;;1.20;;
67156;SDS011;54086;50.126;8.710;2023-01-15T12:01:12;3.95;;;0.88;;
67156;SDS011;54086;50.126;8.710;2023-01-15T12:03:45;5.07;;;0.90;;
67156;SDS011;54086;50.126;8.710;2023-01-15T12:06:11;3.97;;;1.00;;
67156;SDS011;54086;50.126;8.710;2023-01-15T12:08:48;3.95;;;1.00;;
67156;SDS011;54086;50.126;8.710;2023-01-15T12:16:47;4.85;;;1.33;;
67156;SDS011;54086;50.126;8.710;2023-01-15T12:21:53;5.38;;;1.20;;
67156;SDS011;54086;50.126;8.710;2023-01-15T12:29:57;3.05;;;0.90;;
67156;SDS011;54086;50.126;8.710;2023-01-15T12:32:28;4.57;;;1.17;;
67156;SDS011;54086;50.126;8.710;2023-01-15T12:35:03;3.53;;;1.02;;
67156;SDS011;54086;50.126;8.710;2023-01-15T12:37:42;3.67;;;1.20;;
67156;SDS011;54086;50.126;8.710;2023-01-15T12:40:19;3.57;;;1.10;;
67156;SDS011;54086;50.126;8.710;2023-01-15T12:42:51;2.95;;;1.00;;
67156;SDS011;54086;50.126;8.710;2023-01-15T12:45:37;3.65;;;0.98;;
67156;SDS011;54086;50.126;8.710;2023-01-15T12:48:12;3.63;;;1.10;;
67156;SDS011;54086;50.126;8.710;2023-01-15T12:50:45;4.95;;;1.40;;
67156;SDS011;54086;50.126;8.710;2023-01-15T12:53:19;4.57;;;1.20;;
67156;SDS011;54086;50.126;8.710;2023-01-15T12:58:43;9.60;;;2.83;;
67156;SDS011;54086;50.126;8.710;2023-01-15T13:04:38;3.58;;;1.20;;
67156;SDS011;54086;50.126;8.710;2023-01-15T13:09:44;5.88;;;1.20;;
67156;SDS011;54086;50.126;8.710;2023-01-15T13:12:17;4.25;;;1.23;;
67156;SDS011;54086;50.126;8.710;2023-01-15T13:14:43;4.33;;;1.00;;
67156;SDS011;54086;50.126;8.710;2023-01-15T13:17:15;6.63;;;1.20;;
67156;SDS011;54086;50.126;8.710;2023-01-15T13:22:37;3.15;;;0.98;;
67156;SDS011;54086;50.126;8.710;2023-01-15T13:28:11;5.28;;;0.88;;
67156;SDS011;54086;50.126;8.710;2023-01-15T13:33:21;6.93;;;1.20;;
67156;SDS011;54086;50.126;8.710;2023-01-15T13:35:50;4.32;;;1.08;;
67156;SDS011;54086;50.126;8.710;2023-01-15T13:38:22;4.13;;;1.13;;
67156;SDS011;54086;50.126;8.710;2023-01-15T13:40:50;5.60;;;1.00;;
67156;SDS011;54086;50.126;8.710;2023-01-15T13:43:29;5.68;;;1.20;;
67156;SDS011;54086;50.126;8.710;2023-01-15T13:45:58;6.70;;;1.10;;
67156;SDS011;54086;50.126;8.710;2023-01-15T13:48:32;6.35;;;1.10;;
67156;SDS011;54086;50.126;8.710;2023-01-15T13:51:16;7.03;;;1.13;;
67156;SDS011;54086;50.126;8.710;2023-01-15T13:53:49;4.85;;;1.20;;
67156;SDS011;54086;50.126;8.710;2023-01-15T13:56:24;8.13;;;1.57;;
67156;SDS011;54086;50.126;8.710;2023-01-15T13:58:58;6.03;;;1.35;;
67156;SDS011;54086;50.126;8.710;2023-01-15T14:04:12;3.83;;;1.00;;
67156;SDS011;54086;50.126;8.710;2023-01-15T14:06:42;8.13;;;1.55;;
67156;SDS011;54086;50.126;8.710;2023-01-15T14:09:33;4.63;;;1.20;;
67156;SDS011;54086;50.126;8.710;2023-01-15T14:12:19;5.95;;;1.20;;
67156;SDS011;54086;50.126;8.710;2023-01-15T14:26:35;4.57;;;1.02;;
67156;SDS011;54086;50.126;8.710;2023-01-15T14:34:55;7.20;;;1.10;;
67156;SDS011;54086;50.126;8.710;2023-01-15T14:40:33;5.80;;;1.13;;
67156;SDS011;54086;50.126;8.710;2023-01-15T14:43:10;4.47;;;1.20;;
67156;SDS011;54086;50.126;8.710;2023-01-15T14:45:43;6.43;;;1.30;;
67156;SDS011;54086;50.126;8.710;2023-01-15T14:50:53;5.60;;;1.23;;
67156;SDS011;54086;50.126;8.710;2023-01-15T14:53:37;5.28;;;1.40;;
67156;SDS011;54086;50.126;8.710;2023-01-15T14:59:25;6.03;;;1.10;;
67156;SDS011;54086;50.126;8.710;2023-01-15T15:02:01;5.38;;;1.42;;
67156;SDS011;54086;50.126;8.710;2023-01-15T15:04:36;7.70;;;1.50;;
67156;SDS011;54086;50.126;8.710;2023-01-15T15:07:06;6.38;;;1.02;;
67156;SDS011;54086;50.126;8.710;2023-01-15T15:12:32;4.77;;;1.00;;
67156;SDS011;54086;50.126;8.710;2023-01-15T15:15:01;4.05;;;0.82;;
67156;SDS011;54086;50.126;8.710;2023-01-15T15:21:15;3.60;;;0.93;;
67156;SDS011;54086;50.126;8.710;2023-01-15T15:26:37;3.77;;;1.00;;
67156;SDS011;54086;50.126;8.710;2023-01-15T15:29:12;3.92;;;0.90;;
67156;SDS011;54086;50.126;8.710;2023-01-15T15:31:52;7.65;;;1.35;;
67156;SDS011;54086;50.126;8.710;2023-01-15T15:34:28;6.07;;;1.27;;
67156;SDS011;54086;50.126;8.710;2023-01-15T15:37:00;5.50;;;1.45;;
67156;SDS011;54086;50.126;8.710;2023-01-15T15:39:41;5.80;;;1.07;;
67156;SDS011;54086;50.126;8.710;2023-01-15T15:42:27;5.32;;;1.23;;
67156;SDS011;54086;50.126;8.710;2023-01-15T15:45:19;7.03;;;1.42;;
67156;SDS011;54086;50.126;8.710;2023-01-15T15:48:13;4.25;;;0.93;;
67156;SDS011;54086;50.126;8.710;2023-01-15T15:51:02;6.15;;;1.20;;
67156;SDS011;54086;50.126;8.710;2023-01-15T15:53:29;5.43;;;1.30;;
67156;SDS011;54086;50.126;8.710;2023-01-15T15:55:55;6.40;;;1.50;;
67156;SDS011;54086;50.126;8.710;2023-01-15T15:58:23;7.68;;;1.40;;
67156;SDS011;54086;50.126;8.710;2023-01-15T16:00:56;7.78;;;1.20;;
67156;SDS011;54086;50.126;8.710;2023-01-15T16:03:23;8.67;;;1.20;;
67156;SDS011;54086;50.126;8.710;2023-01-15T16:05:57;4.93;;;1.20;;
67156;SDS011;54086;50.126;8.710;2023-01-15T16:08:24;3.92;;;1.00;;
67156;SDS011;54086;50.126;8.710;2023-01-15T16:11:24;4.20;;;0.90;;
67156;SDS011;54086;50.126;8.710;2023-01-15T16:13:47;5.47;;;1.00;;
67156;SDS011;54086;50.126;8.710;2023-01-15T16:16:15;4.00;;;0.93;;
67156;SDS011;54086;50.126;8.710;2023-01-15T16:18:43;6.57;;;1.70;;
67156;SDS011;54086;50.126;8.710;2023-01-15T16:21:21;6.60;;;1.55;;
67156;SDS011;54086;50.126;8.710;2023-01-15T16:23:59;7.43;;;1.30;;
67156;SDS011;54086;50.126;8.710;2023-01-15T16:29:20;6.70;;;1.15;;
67156;SDS011;54086;50.126;8.710;2023-01-15T16:31:48;6.60;;;1.67;;
67156;SDS011;54086;50.126;8.710;2023-01-15T16:34:18;5.10;;;1.60;;
67156;SDS011;54086;50.126;8.710;2023-01-15T16:36:46;6.10;;;1.47;;
67156;SDS011;54086;50.126;8.710;2023-01-15T16:39:54;8.15;;;1.38;;
67156;SDS011;54086;50.126;8.710;2023-01-15T16:42:03;4.38;;;1.13;;
67156;SDS011;54086;50.126;8.710;2023-01-15T16:44:50;8.77;;;1.30;;
67156;SDS011;54086;50.126;8.710;2023-01-15T16:47:23;7.97;;;1.40;;
67156;SDS011;54086;50.126;8.710;2023-01-15T16:49:50;4.25;;;1.20;;
67156;SDS011;54086;50.126;8.710;2023-01-15T16:55:23;4.22;;;1.30;;
67156;SDS011;54086;50.126;8.710;2023-01-15T17:00:37;5.45;;;1.20;;
67156;SDS011;54086;50.126;8.710;2023-01-15T17:03:13;5.05;;;1.20;;
67156;SDS011;54086;50.126;8.710;2023-01-15T17:05:41;2.40;;;0.87;;
67156;SDS011;54086;50.126;8.710;2023-01-15T17:08:21;3.97;;;1.05;;
67156;SDS011;54086;50.126;8.710;2023-01-15T17:11:02;4.38;;;1.23;;
67156;SDS011;54086;50.126;8.710;2023-01-15T17:13:35;5.68;;;1.33;;
67156;SDS011;54086;50.126;8.710;2023-01-15T17:16:12;6.45;;;1.20;;
67156;SDS011;54086;50.126;8.710;2023-01-15T17:18:39;5.73;;;1.20;;
67156;SDS011;54086;50.126;8.710;2023-01-15T17:21:05;3.07;;;1.00;;
67156;SDS011;54086;50.126;8.710;2023-01-15T17:23:34;3.90;;;1.03;;
67156;SDS011;54086;50.126;8.710;2023-01-15T17:26:03;4.63;;;1.08;;
67156;SDS011;54086;50.126;8.710;2023-01-15T17:28:29;5.00;;;1.13;;
67156;SDS011;54086;50.126;8.710;2023-01-15T17:30:56;2.37;;;0.80;;